sensor_id;sensor_type;location;lat;lon;timestamp;P1;durP1;ratioP1;P2;durP2;ratioP2
25609;SDS011;13479;49.044;8.716;2024-01-11T05:02:03;53.77;;;20.27;;
25609;SDS011;13479;49.044;8.716;2024-01-11T05:04:29;49.70;;;19.83;;
25609;SDS011;13479;49.044;8.716;2024-01-11T05:06:55;50.73;;;18.80;;
25609;SDS011;13479;49.044;8.716;2024-01-11T05:09:20;46.23;;;19.40;;
25609;SDS011;13479;49.044;8.716;2024-01-11T05:11:45;53.40;;;21.00;;
25609;SDS011;13479;49.044;8.716;2024-01-11T05:14:11;45.93;;;19.90;;
25609;SDS011;13479;49.044;8.716;2024-01-11T05:16:36;46.00;;;17.77;;
25609;SDS011;13479;49.044;8.716;2024-01-11T05:19:01;52.53;;;20.93;;
25609;SDS011;13479;49.044;8.716;2024-01-11T05:21:27;50.80;;;20.87;;
25609;SDS011;13479;49.044;8.716;2024-01-11T05:23:52;48.77;;;19.50;;
25609;SDS011;13479;49.044;8.716;2024-01-11T05:26:17;51.13;;;17.80;;
25609;SDS011;13479;49.044;8.716;2024-01-11T05:28:43;45.17;;;18.20;;
25609;SDS011;13479;49.044;8.716;2024-01-11T05:31:09;41.90;;;17.10;;
25609;SDS011;13479;49.044;8.716;2024-01-11T05:33:36;44.30;;;18.73;;
25609;SDS011;13479;49.044;8.716;2024-01-11T05:36:01;42.97;;;18.10;;
25609;SDS011;13479;49.044;8.716;2024-01-11T05:38:27;49.30;;;21.07;;
25609;SDS011;13479;49.044;8.716;2024-01-11T05:40:53;49.60;;;20.17;;
25609;SDS011;13479;49.044;8.716;2024-01-11T05:43:18;51.47;;;21.10;;
25609;SDS011;13479;49.044;8.716;2024-01-11T05:45:43;54.73;;;21.63;;
25609;SDS011;13479;49.044;8.716;2024-01-11T05:48:10;53.30;;;20.67;;
25609;SDS011;13479;49.044;8.716;2024-01-11T05:50:35;53.80;;;21.90;;
25609;SDS011;13479;49.044;8.716;2024-01-11T05:53:00;73.37;;;27.37;;
25609;SDS011;13479;49.044;8.716;2024-01-11T05:55:26;63.97;;;24.30;;
25609;SDS011;13479;49.044;8.716;2024-01-11T05:57:51;60.33;;;22.63;;
25609;SDS011;13479;49.044;8.716;2024-01-11T06:00:16;64.90;;;24.73;;
25609;SDS011;13479;49.044;8.716;2024-01-11T06:02:42;53.03;;;20.93;;
25609;SDS011;13479;49.044;8.716;2024-01-11T06:05:08;61.17;;;23.03;;
25609;SDS011;13479;49.044;8.716;2024-01-11T06:07:34;54.90;;;20.00;;
25609;SDS011;13479;49.044;8.716;2024-01-11T06:10:00;51.20;;;19.93;;
25609;SDS011;13479;49.044;8.716;2024-01-11T06:12:27;58.23;;;24.43;;
25609;SDS011;13479;49.044;8.716;2024-01-11T06:14:53;57.20;;;22.43;;
25609;SDS011;13479;49.044;8.716;2024-01-11T06:17:18;60.30;;;23.80;;
25609;SDS011;13479;49.044;8.716;2024-01-11T06:19:43;65.10;;;24.00;;
25609;SDS011;13479;49.044;8.716;2024-01-11T06:22:08;62.27;;;24.10;;
25609;SDS011;13479;49.044;8.716;2024-01-11T06:24:34;51.37;;;20.47;;
25609;SDS011;13479;49.044;8.716;2024-01-11T06:26:59;71.90;;;25.47;;
25609;SDS011;13479;49.044;8.716;2024-01-11T06:29:24;58.17;;;23.50;;
25609;SDS011;13479;49.044;8.716;2024-01-11T06:31:50;54.00;;;22.90;;
25609;SDS011;13479;49.044;8.716;2024-01-11T06:34:15;55.80;;;23.07;;
25609;SDS011;13479;49.044;8.716;2024-01-11T06:36:40;55.50;;;22.33;;
25609;SDS011;13479;49.044;8.716;2024-01-11T06:39:06;58.83;;;23.57;;
25609;SDS011;13479;49.044;8.716;2024-01-11T06:41:31;56.50;;;23.07;;
25609;SDS011;13479;49.044;8.716;2024-01-11T06:43:56;55.80;;;21.30;;
25609;SDS011;13479;49.044;8.716;2024-01-11T06:46:21;54.47;;;21.23;;
25609;SDS011;13479;49.044;8.716;2024-01-11T06:48:47;41.53;;;14.80;;
25609;SDS011;13479;49.044;8.716;2024-01-11T06:51:14;29.03;;;11.03;;
25609;SDS011;13479;49.044;8.716;2024-01-11T06:53:40;44.90;;;16.50;;
25609;SDS011;13479;49.044;8.716;2024-01-11T06:56:14;52.77;;;16.50;;
25609;SDS011;13479;49.044;8.716;2024-01-11T06:58:43;50.03;;;18.07;;
25609;SDS011;13479;49.044;8.716;2024-01-11T07:01:09;48.77;;;19.83;;
25609;SDS011;13479;49.044;8.716;2024-01-11T07:03:35;54.63;;;20.10;;
25609;SDS011;13479;49.044;8.716;2024-01-11T07:06:00;63.60;;;25.13;;
25609;SDS011;13479;49.044;8.716;2024-01-11T07:08:26;57.70;;;23.30;;
25609;SDS011;13479;49.044;8.716;2024-01-11T07:10:51;57.00;;;22.63;;
25609;SDS011;13479;49.044;8.716;2024-01-11T07:13:17;54.87;;;22.00;;
25609;SDS011;13479;49.044;8.716;2024-01-11T07:15:42;57.60;;;21.27;;
25609;SDS011;13479;49.044;8.716;2024-01-11T07:18:09;54.77;;;19.73;;
25609;SDS011;13479;49.044;8.716;2024-01-11T07:20:35;52.93;;;21.33;;
25609;SDS011;13479;49.044;8.716;2024-01-11T07:23:00;54.77;;;20.33;;
25609;SDS011;13479;49.044;8.716;2024-01-11T07:25:25;51.17;;;22.00;;
25609;SDS011;13479;49.044;8.716;2024-01-11T07:27:51;65.30;;;23.63;;
25609;SDS011;13479;49.044;8.716;2024-01-11T07:30:16;62.40;;;24.27;;
25609;SDS011;13479;49.044;8.716;2024-01-11T07:32:43;62.30;;;22.87;;
25609;SDS011;13479;49.044;8.716;2024-01-11T07:35:09;64.37;;;25.17;;
25609;SDS011;13479;49.044;8.716;2024-01-11T07:37:36;63.57;;;23.27;;
25609;SDS011;13479;49.044;8.716;2024-01-11T07:40:02;65.50;;;24.70;;
25609;SDS011;13479;49.044;8.716;2024-01-11T07:42:27;57.47;;;21.30;;
25609;SDS011;13479;49.044;8.716;2024-01-11T07:44:53;55.47;;;20.27;;
25609;SDS011;13479;49.044;8.716;2024-01-11T07:47:18;50.17;;;20.70;;
25609;SDS011;13479;49.044;8.716;2024-01-11T07:49:43;51.13;;;20.07;;
25609;SDS011;13479;49.044;8.716;2024-01-11T07:52:09;55.70;;;22.17;;
25609;SDS011;13479;49.044;8.716;2024-01-11T07:54:34;49.63;;;20.47;;
25609;SDS011;13479;49.044;8.716;2024-01-11T07:57:00;58.87;;;24.93;;
25609;SDS011;13479;49.044;8.716;2024-01-11T07:59:27;54.37;;;22.17;;
25609;SDS011;13479;49.044;8.716;2024-01-11T08:01:52;48.87;;;19.80;;
25609;SDS011;13479;49.044;8.716;2024-01-11T08:04:18;46.57;;;18.37;;
25609;SDS011;13479;49.044;8.716;2024-01-11T08:06:44;43.33;;;18.00;;
25609;SDS011;13479;49.044;8.716;2024-01-11T08:09:09;53.10;;;21.67;;
25609;SDS011;13479;49.044;8.716;2024-01-11T08:11:35;50.63;;;20.63;;
25609;SDS011;13479;49.044;8.716;2024-01-11T08:14:01;41.37;;;18.23;;
25609;SDS011;13479;49.044;8.716;2024-01-11T08:16:26;50.50;;;24.63;;
25609;SDS011;13479;49.044;8.716;2024-01-11T08:18:52;42.87;;;20.30;;
25609;SDS011;13479;49.044;8.716;2024-01-11T08:21:19;41.13;;;18.27;;
25609;SDS011;13479;49.044;8.716;2024-01-11T08:23:44;46.97;;;21.43;;
25609;SDS011;13479;49.044;8.716;2024-01-11T08:26:13;39.50;;;15.53;;
25609;SDS011;13479;49.044;8.716;2024-01-11T08:28:43;43.80;;;18.37;;
25609;SDS011;13479;49.044;8.716;2024-01-11T08:31:09;37.43;;;15.30;;
25609;SDS011;13479;49.044;8.716;2024-01-11T08:33:34;35.20;;;13.87;;
25609;SDS011;13479;49.044;8.716;2024-01-11T08:36:01;42.97;;;18.87;;
25609;SDS011;13479;49.044;8.716;2024-01-11T08:38:28;33.47;;;14.80;;
25609;SDS011;13479;49.044;8.716;2024-01-11T08:40:54;39.87;;;18.90;;
25609;SDS011;13479;49.044;8.716;2024-01-11T08:43:20;39.00;;;17.30;;
25609;SDS011;13479;49.044;8.716;2024-01-11T08:45:45;37.13;;;17.73;;
25609;SDS011;13479;49.044;8.716;2024-01-11T08:48:11;34.83;;;14.20;;
25609;SDS011;13479;49.044;8.716;2024-01-11T08:50:37;41.23;;;19.40;;
25609;SDS011;13479;49.044;8.716;2024-01-11T08:53:02;38.87;;;16.33;;
25609;SDS011;13479;49.044;8.716;2024-01-11T08:55:28;42.73;;;19.93;;
25609;SDS011;13479;49.044;8.716;2024-01-11T08:57:53;36.60;;;16.80;;
25609;SDS011;13479;49.044;8.716;2024-01-11T09:00:19;40.37;;;18.17;;
25609;SDS011;13479;49.044;8.716;2024-01-11T09:02:44;38.90;;;16.60;;
25609;SDS011;13479;49.044;8.716;2024-01-11T09:05:10;39.17;;;18.20;;
25609;SDS011;13479;49.044;8.716;2024-01-11T09:07:36;34.00;;;14.57;;
25609;SDS011;13479;49.044;8.716;2024-01-11T09:10:02;32.27;;;14.63;;
25609;SDS011;13479;49.044;8.716;2024-01-11T09:12:27;36.97;;;15.90;;
25609;SDS011;13479;49.044;8.716;2024-01-11T09:14:53;30.90;;;14.60;;
25609;SDS011;13479;49.044;8.716;2024-01-11T09:17:19;31.97;;;14.47;;
25609;SDS011;13479;49.044;8.716;2024-01-11T09:19:45;35.20;;;16.50;;
25609;SDS011;13479;49.044;8.716;2024-01-11T09:22:10;36.27;;;17.17;;
25609;SDS011;13479;49.044;8.716;2024-01-11T09:24:35;34.80;;;16.47;;
25609;SDS011;13479;49.044;8.716;2024-01-11T09:27:01;32.60;;;13.27;;
25609;SDS011;13479;49.044;8.716;2024-01-11T09:29:26;33.77;;;13.30;;
25609;SDS011;13479;49.044;8.716;2024-01-11T09:31:52;37.70;;;17.27;;
25609;SDS011;13479;49.044;8.716;2024-01-11T09:34:18;38.27;;;17.30;;
25609;SDS011;13479;49.044;8.716;2024-01-11T09:36:43;37.23;;;18.37;;
25609;SDS011;13479;49.044;8.716;2024-01-11T09:39:10;37.83;;;16.43;;
25609;SDS011;13479;49.044;8.716;2024-01-11T09:41:36;32.63;;;14.40;;
25609;SDS011;13479;49.044;8.716;2024-01-11T09:44:03;35.07;;;15.07;;
25609;SDS011;13479;49.044;8.716;2024-01-11T09:46:29;33.50;;;15.77;;
25609;SDS011;13479;49.044;8.716;2024-01-11T09:48:57;39.00;;;17.80;;
25609;SDS011;13479;49.044;8.716;2024-01-11T09:51:23;30.77;;;13.63;;
25609;SDS011;13479;49.044;8.716;2024-01-11T09:53:50;33.60;;;14.45;;
25609;SDS011;13479;49.044;8.716;2024-01-11T09:56:17;32.95;;;14.10;;
25609;SDS011;13479;49.044;8.716;2024-01-11T09:58:45;38.05;;;17.33;;
25609;SDS011;13479;49.044;8.716;2024-01-11T10:01:15;38.00;;;18.73;;
25609;SDS011;13479;49.044;8.716;2024-01-11T10:03:40;39.60;;;19.30;;
25609;SDS011;13479;49.044;8.716;2024-01-11T10:06:11;35.03;;;18.08;;
25609;SDS011;13479;49.044;8.716;2024-01-11T10:08:37;21.13;;;9.20;;
25609;SDS011;13479;49.044;8.716;2024-01-11T10:11:02;38.33;;;18.88;;
25609;SDS011;13479;49.044;8.716;2024-01-11T10:13:29;37.92;;;17.83;;
25609;SDS011;13479;49.044;8.716;2024-01-11T10:16:04;36.78;;;18.75;;
25609;SDS011;13479;49.044;8.716;2024-01-11T10:18:31;39.63;;;19.38;;
25609;SDS011;13479;49.044;8.716;2024-01-11T10:20:57;40.28;;;19.00;;
25609;SDS011;13479;49.044;8.716;2024-01-11T10:23:23;37.13;;;19.00;;
25609;SDS011;13479;49.044;8.716;2024-01-11T10:25:49;38.10;;;20.00;;
25609;SDS011;13479;49.044;8.716;2024-01-11T10:28:14;37.05;;;19.17;;
25609;SDS011;13479;49.044;8.716;2024-01-11T10:30:40;41.10;;;19.40;;
25609;SDS011;13479;49.044;8.716;2024-01-11T10:33:06;38.22;;;18.50;;
25609;SDS011;13479;49.044;8.716;2024-01-11T10:35:33;37.00;;;19.40;;
25609;SDS011;13479;49.044;8.716;2024-01-11T10:38:00;39.15;;;18.20;;
25609;SDS011;13479;49.044;8.716;2024-01-11T10:40:34;36.65;;;21.02;;
25609;SDS011;13479;49.044;8.716;2024-01-11T10:42:59;42.17;;;20.55;;
25609;SDS011;13479;49.044;8.716;2024-01-11T10:45:27;38.30;;;16.90;;
25609;SDS011;13479;49.044;8.716;2024-01-11T10:47:56;36.92;;;17.88;;
25609;SDS011;13479;49.044;8.716;2024-01-11T10:50:26;31.60;;;12.57;;
25609;SDS011;13479;49.044;8.716;2024-01-11T10:55:33;37.53;;;18.38;;
25609;SDS011;13479;49.044;8.716;2024-01-11T10:58:00;39.00;;;20.27;;
25609;SDS011;13479;49.044;8.716;2024-01-11T11:00:26;39.58;;;19.77;;
25609;SDS011;13479;49.044;8.716;2024-01-11T11:02:53;38.20;;;18.15;;
25609;SDS011;13479;49.044;8.716;2024-01-11T11:05:20;35.38;;;17.48;;
25609;SDS011;13479;49.044;8.716;2024-01-11T11:07:47;28.75;;;12.13;;
25609;SDS011;13479;49.044;8.716;2024-01-11T11:10:14;39.17;;;18.48;;
25609;SDS011;13479;49.044;8.716;2024-01-11T11:12:42;39.13;;;16.75;;
25609;SDS011;13479;49.044;8.716;2024-01-11T11:15:09;39.30;;;17.88;;
25609;SDS011;13479;49.044;8.716;2024-01-11T11:17:37;43.00;;;19.88;;
25609;SDS011;13479;49.044;8.716;2024-01-11T11:20:05;42.95;;;20.15;;
25609;SDS011;13479;49.044;8.716;2024-01-11T11:22:33;38.30;;;19.80;;
25609;SDS011;13479;49.044;8.716;2024-01-11T11:25:03;46.38;;;21.05;;
25609;SDS011;13479;49.044;8.716;2024-01-11T11:27:30;40.13;;;19.90;;
25609;SDS011;13479;49.044;8.716;2024-01-11T11:29:56;41.20;;;19.57;;
25609;SDS011;13479;49.044;8.716;2024-01-11T11:32:34;42.40;;;20.15;;
25609;SDS011;13479;49.044;8.716;2024-01-11T11:35:03;38.53;;;18.77;;
25609;SDS011;13479;49.044;8.716;2024-01-11T11:37:30;40.93;;;18.73;;
25609;SDS011;13479;49.044;8.716;2024-01-11T11:39:57;40.03;;;18.87;;
25609;SDS011;13479;49.044;8.716;2024-01-11T11:42:22;42.37;;;19.93;;
25609;SDS011;13479;49.044;8.716;2024-01-11T11:44:49;39.47;;;18.70;;
25609;SDS011;13479;49.044;8.716;2024-01-11T11:47:22;39.50;;;19.43;;
25609;SDS011;13479;49.044;8.716;2024-01-11T11:52:37;40.60;;;20.07;;
25609;SDS011;13479;49.044;8.716;2024-01-11T11:55:03;42.07;;;20.83;;
25609;SDS011;13479;49.044;8.716;2024-01-11T11:57:30;41.77;;;20.27;;
25609;SDS011;13479;49.044;8.716;2024-01-11T11:59:58;41.93;;;19.13;;
25609;SDS011;13479;49.044;8.716;2024-01-11T12:02:27;39.73;;;18.23;;
25609;SDS011;13479;49.044;8.716;2024-01-11T12:04:53;44.43;;;20.20;;
25609;SDS011;13479;49.044;8.716;2024-01-11T12:07:21;42.53;;;19.30;;
25609;SDS011;13479;49.044;8.716;2024-01-11T12:09:48;43.20;;;20.93;;
25609;SDS011;13479;49.044;8.716;2024-01-11T12:12:14;44.40;;;20.23;;
25609;SDS011;13479;49.044;8.716;2024-01-11T12:14:41;46.63;;;21.30;;
25609;SDS011;13479;49.044;8.716;2024-01-11T12:17:06;43.40;;;19.33;;
25609;SDS011;13479;49.044;8.716;2024-01-11T12:19:32;45.30;;;19.50;;
25609;SDS011;13479;49.044;8.716;2024-01-11T12:21:57;49.80;;;21.80;;
25609;SDS011;13479;49.044;8.716;2024-01-11T12:24:23;41.63;;;19.03;;
25609;SDS011;13479;49.044;8.716;2024-01-11T12:26:49;45.13;;;18.93;;
25609;SDS011;13479;49.044;8.716;2024-01-11T12:29:17;48.33;;;20.60;;
25609;SDS011;13479;49.044;8.716;2024-01-11T12:31:43;43.70;;;20.20;;
25609;SDS011;13479;49.044;8.716;2024-01-11T12:34:08;45.10;;;20.73;;
25609;SDS011;13479;49.044;8.716;2024-01-11T12:36:36;44.13;;;19.13;;
25609;SDS011;13479;49.044;8.716;2024-01-11T12:39:01;46.90;;;19.87;;
25609;SDS011;13479;49.044;8.716;2024-01-11T12:41:29;41.50;;;18.77;;
25609;SDS011;13479;49.044;8.716;2024-01-11T12:43:54;42.40;;;19.73;;
25609;SDS011;13479;49.044;8.716;2024-01-11T12:46:20;45.27;;;19.90;;
25609;SDS011;13479;49.044;8.716;2024-01-11T12:48:45;44.53;;;19.47;;
25609;SDS011;13479;49.044;8.716;2024-01-11T12:51:11;41.37;;;19.03;;
25609;SDS011;13479;49.044;8.716;2024-01-11T12:53:37;40.63;;;18.40;;
25609;SDS011;13479;49.044;8.716;2024-01-11T12:56:05;39.00;;;18.03;;
25609;SDS011;13479;49.044;8.716;2024-01-11T12:58:33;48.30;;;20.10;;
25609;SDS011;13479;49.044;8.716;2024-01-11T13:00:59;42.20;;;19.73;;
25609;SDS011;13479;49.044;8.716;2024-01-11T13:03:25;41.63;;;19.37;;
25609;SDS011;13479;49.044;8.716;2024-01-11T13:05:52;41.07;;;19.23;;
25609;SDS011;13479;49.044;8.716;2024-01-11T13:08:17;32.13;;;14.23;;
25609;SDS011;13479;49.044;8.716;2024-01-11T13:10:43;46.70;;;21.33;;
25609;SDS011;13479;49.044;8.716;2024-01-11T13:13:08;44.93;;;20.30;;
25609;SDS011;13479;49.044;8.716;2024-01-11T13:15:33;35.23;;;15.13;;
25609;SDS011;13479;49.044;8.716;2024-01-11T13:18:02;40.13;;;17.50;;
25609;SDS011;13479;49.044;8.716;2024-01-11T13:20:28;35.23;;;13.93;;
25609;SDS011;13479;49.044;8.716;2024-01-11T13:23:12;31.97;;;14.53;;
25609;SDS011;13479;49.044;8.716;2024-01-11T13:25:43;37.53;;;17.27;;
25609;SDS011;13479;49.044;8.716;2024-01-11T13:28:10;36.30;;;16.60;;
25609;SDS011;13479;49.044;8.716;2024-01-11T13:30:42;33.03;;;15.33;;
25609;SDS011;13479;49.044;8.716;2024-01-11T13:33:08;35.20;;;15.67;;
25609;SDS011;13479;49.044;8.716;2024-01-11T13:35:35;40.57;;;16.67;;
25609;SDS011;13479;49.044;8.716;2024-01-11T13:38:02;35.20;;;16.33;;
25609;SDS011;13479;49.044;8.716;2024-01-11T13:40:28;40.27;;;17.87;;
25609;SDS011;13479;49.044;8.716;2024-01-11T13:42:54;44.33;;;18.23;;
25609;SDS011;13479;49.044;8.716;2024-01-11T13:45:21;40.50;;;18.60;;
25609;SDS011;13479;49.044;8.716;2024-01-11T13:47:46;37.43;;;16.50;;
25609;SDS011;13479;49.044;8.716;2024-01-11T13:50:12;38.43;;;17.60;;
25609;SDS011;13479;49.044;8.716;2024-01-11T13:52:37;41.37;;;16.33;;
25609;SDS011;13479;49.044;8.716;2024-01-11T13:55:03;31.87;;;14.90;;
25609;SDS011;13479;49.044;8.716;2024-01-11T13:57:29;39.70;;;17.77;;
25609;SDS011;13479;49.044;8.716;2024-01-11T13:59:54;33.60;;;15.43;;
25609;SDS011;13479;49.044;8.716;2024-01-11T14:02:20;32.80;;;14.63;;
25609;SDS011;13479;49.044;8.716;2024-01-11T14:04:46;31.63;;;16.50;;
25609;SDS011;13479;49.044;8.716;2024-01-11T14:07:11;37.47;;;16.80;;
25609;SDS011;13479;49.044;8.716;2024-01-11T14:09:37;28.33;;;12.20;;
25609;SDS011;13479;49.044;8.716;2024-01-11T14:12:02;40.07;;;18.03;;
25609;SDS011;13479;49.044;8.716;2024-01-11T14:14:27;36.67;;;15.67;;
25609;SDS011;13479;49.044;8.716;2024-01-11T14:16:53;36.33;;;16.40;;
25609;SDS011;13479;49.044;8.716;2024-01-11T14:19:18;37.03;;;15.50;;
25609;SDS011;13479;49.044;8.716;2024-01-11T14:21:43;26.33;;;11.87;;
25609;SDS011;13479;49.044;8.716;2024-01-11T14:24:09;29.70;;;14.53;;
25609;SDS011;13479;49.044;8.716;2024-01-11T14:26:34;29.73;;;11.80;;
25609;SDS011;13479;49.044;8.716;2024-01-11T14:28:59;37.73;;;16.00;;
25609;SDS011;13479;49.044;8.716;2024-01-11T14:31:26;40.90;;;17.10;;
25609;SDS011;13479;49.044;8.716;2024-01-11T14:33:51;29.50;;;13.23;;
25609;SDS011;13479;49.044;8.716;2024-01-11T14:36:17;21.50;;;8.60;;
25609;SDS011;13479;49.044;8.716;2024-01-11T14:38:42;39.40;;;16.67;;
25609;SDS011;13479;49.044;8.716;2024-01-11T14:41:08;38.17;;;16.23;;
25609;SDS011;13479;49.044;8.716;2024-01-11T14:43:34;36.27;;;15.43;;
25609;SDS011;13479;49.044;8.716;2024-01-11T14:46:00;38.07;;;17.30;;
25609;SDS011;13479;49.044;8.716;2024-01-11T14:48:25;30.57;;;14.13;;
25609;SDS011;13479;49.044;8.716;2024-01-11T14:50:51;35.20;;;15.80;;
25609;SDS011;13479;49.044;8.716;2024-01-11T14:53:17;32.60;;;15.23;;
25609;SDS011;13479;49.044;8.716;2024-01-11T14:55:43;29.77;;;15.03;;
25609;SDS011;13479;49.044;8.716;2024-01-11T14:58:08;37.47;;;15.50;;
25609;SDS011;13479;49.044;8.716;2024-01-11T15:00:34;32.27;;;14.87;;
25609;SDS011;13479;49.044;8.716;2024-01-11T15:02:59;34.03;;;13.53;;
25609;SDS011;13479;49.044;8.716;2024-01-11T15:05:25;34.73;;;15.03;;
25609;SDS011;13479;49.044;8.716;2024-01-11T15:07:50;37.73;;;16.43;;
25609;SDS011;13479;49.044;8.716;2024-01-11T15:10:16;36.03;;;16.73;;
25609;SDS011;13479;49.044;8.716;2024-01-11T15:12:42;35.53;;;14.73;;
25609;SDS011;13479;49.044;8.716;2024-01-11T15:15:07;34.53;;;14.53;;
25609;SDS011;13479;49.044;8.716;2024-01-11T15:17:34;37.13;;;15.93;;
25609;SDS011;13479;49.044;8.716;2024-01-11T15:19:59;33.87;;;14.50;;
25609;SDS011;13479;49.044;8.716;2024-01-11T15:22:25;32.57;;;14.93;;
25609;SDS011;13479;49.044;8.716;2024-01-11T15:24:51;40.73;;;17.40;;
25609;SDS011;13479;49.044;8.716;2024-01-11T15:27:19;48.57;;;19.57;;
25609;SDS011;13479;49.044;8.716;2024-01-11T15:29:45;42.90;;;18.67;;
25609;SDS011;13479;49.044;8.716;2024-01-11T15:32:11;43.93;;;19.10;;
25609;SDS011;13479;49.044;8.716;2024-01-11T15:34:36;36.53;;;15.53;;
25609;SDS011;13479;49.044;8.716;2024-01-11T15:37:02;38.97;;;16.53;;
25609;SDS011;13479;49.044;8.716;2024-01-11T15:39:27;39.87;;;17.30;;
25609;SDS011;13479;49.044;8.716;2024-01-11T15:41:53;39.40;;;18.33;;
25609;SDS011;13479;49.044;8.716;2024-01-11T15:44:19;41.67;;;17.77;;
25609;SDS011;13479;49.044;8.716;2024-01-11T15:46:44;41.57;;;17.73;;
25609;SDS011;13479;49.044;8.716;2024-01-11T15:49:10;42.00;;;18.33;;
25609;SDS011;13479;49.044;8.716;2024-01-11T15:51:36;43.13;;;19.70;;
25609;SDS011;13479;49.044;8.716;2024-01-11T15:54:02;45.53;;;18.23;;
25609;SDS011;13479;49.044;8.716;2024-01-11T15:56:27;41.53;;;17.83;;
25609;SDS011;13479;49.044;8.716;2024-01-11T15:58:52;42.17;;;18.67;;
25609;SDS011;13479;49.044;8.716;2024-01-11T16:01:18;44.50;;;17.77;;
25609;SDS011;13479;49.044;8.716;2024-01-11T16:03:43;43.70;;;18.50;;
25609;SDS011;13479;49.044;8.716;2024-01-11T16:06:11;45.93;;;19.23;;
25609;SDS011;13479;49.044;8.716;2024-01-11T16:08:36;45.47;;;19.33;;
25609;SDS011;13479;49.044;8.716;2024-01-11T16:11:01;47.03;;;19.93;;
25609;SDS011;13479;49.044;8.716;2024-01-11T16:13:27;44.20;;;19.23;;
25609;SDS011;13479;49.044;8.716;2024-01-11T16:15:52;40.43;;;17.57;;
25609;SDS011;13479;49.044;8.716;2024-01-11T16:18:20;43.20;;;17.93;;
25609;SDS011;13479;49.044;8.716;2024-01-11T16:20:47;41.90;;;18.07;;
25609;SDS011;13479;49.044;8.716;2024-01-11T16:23:14;43.90;;;18.87;;
25609;SDS011;13479;49.044;8.716;2024-01-11T16:25:40;57.73;;;26.87;;
25609;SDS011;13479;49.044;8.716;2024-01-11T16:28:05;54.17;;;22.07;;
25609;SDS011;13479;49.044;8.716;2024-01-11T16:30:30;65.27;;;27.47;;
25609;SDS011;13479;49.044;8.716;2024-01-11T16:32:55;44.30;;;19.80;;
25609;SDS011;13479;49.044;8.716;2024-01-11T16:35:21;43.13;;;18.73;;
25609;SDS011;13479;49.044;8.716;2024-01-11T16:37:47;45.60;;;19.97;;
25609;SDS011;13479;49.044;8.716;2024-01-11T16:40:13;58.97;;;25.20;;
25609;SDS011;13479;49.044;8.716;2024-01-11T16:42:38;47.60;;;21.93;;
25609;SDS011;13479;49.044;8.716;2024-01-11T16:45:03;49.77;;;20.93;;
25609;SDS011;13479;49.044;8.716;2024-01-11T16:47:29;44.00;;;19.07;;
25609;SDS011;13479;49.044;8.716;2024-01-11T16:50:00;44.10;;;18.60;;
25609;SDS011;13479;49.044;8.716;2024-01-11T16:52:29;47.23;;;20.63;;
25609;SDS011;13479;49.044;8.716;2024-01-11T16:54:54;47.00;;;20.67;;
25609;SDS011;13479;49.044;8.716;2024-01-11T16:57:19;52.67;;;22.13;;
25609;SDS011;13479;49.044;8.716;2024-01-11T16:59:45;54.30;;;23.90;;
25609;SDS011;13479;49.044;8.716;2024-01-11T17:02:10;52.77;;;21.83;;
25609;SDS011;13479;49.044;8.716;2024-01-11T17:04:35;55.83;;;23.97;;
25609;SDS011;13479;49.044;8.716;2024-01-11T17:07:01;54.13;;;22.63;;
25609;SDS011;13479;49.044;8.716;2024-01-11T17:09:26;55.53;;;22.73;;
25609;SDS011;13479;49.044;8.716;2024-01-11T17:11:51;57.57;;;24.33;;
25609;SDS011;13479;49.044;8.716;2024-01-11T17:14:17;56.77;;;21.00;;
25609;SDS011;13479;49.044;8.716;2024-01-11T17:16:42;66.70;;;26.70;;
25609;SDS011;13479;49.044;8.716;2024-01-11T17:19:07;61.33;;;25.83;;
25609;SDS011;13479;49.044;8.716;2024-01-11T17:21:32;65.77;;;26.37;;
25609;SDS011;13479;49.044;8.716;2024-01-11T17:23:58;63.87;;;25.90;;
25609;SDS011;13479;49.044;8.716;2024-01-11T17:26:23;62.70;;;27.57;;
25609;SDS011;13479;49.044;8.716;2024-01-11T17:28:48;64.63;;;25.43;;
25609;SDS011;13479;49.044;8.716;2024-01-11T17:31:14;57.60;;;24.93;;
25609;SDS011;13479;49.044;8.716;2024-01-11T17:33:39;59.60;;;25.57;;
25609;SDS011;13479;49.044;8.716;2024-01-11T17:36:04;62.20;;;25.33;;
25609;SDS011;13479;49.044;8.716;2024-01-11T17:38:30;70.50;;;29.10;;
25609;SDS011;13479;49.044;8.716;2024-01-11T17:40:55;66.87;;;28.50;;
25609;SDS011;13479;49.044;8.716;2024-01-11T17:43:20;64.57;;;27.40;;
25609;SDS011;13479;49.044;8.716;2024-01-11T17:45:46;63.33;;;28.37;;
25609;SDS011;13479;49.044;8.716;2024-01-11T17:48:13;65.10;;;27.47;;
25609;SDS011;13479;49.044;8.716;2024-01-11T17:50:40;64.77;;;27.37;;
25609;SDS011;13479;49.044;8.716;2024-01-11T17:53:05;80.53;;;31.23;;
25609;SDS011;13479;49.044;8.716;2024-01-11T17:55:30;75.53;;;30.80;;
25609;SDS011;13479;49.044;8.716;2024-01-11T17:57:56;70.10;;;28.90;;
25609;SDS011;13479;49.044;8.716;2024-01-11T18:00:22;114.30;;;44.93;;
25609;SDS011;13479;49.044;8.716;2024-01-11T18:02:47;96.20;;;38.70;;
25609;SDS011;13479;49.044;8.716;2024-01-11T18:05:13;81.63;;;30.60;;
25609;SDS011;13479;49.044;8.716;2024-01-11T18:07:38;66.67;;;26.53;;
25609;SDS011;13479;49.044;8.716;2024-01-11T18:10:04;67.03;;;28.17;;
25609;SDS011;13479;49.044;8.716;2024-01-11T18:12:30;60.00;;;26.50;;
25609;SDS011;13479;49.044;8.716;2024-01-11T18:14:56;69.20;;;29.23;;
25609;SDS011;13479;49.044;8.716;2024-01-11T18:17:22;73.83;;;30.43;;
25609;SDS011;13479;49.044;8.716;2024-01-11T18:19:47;83.80;;;30.87;;
25609;SDS011;13479;49.044;8.716;2024-01-11T18:22:13;82.70;;;32.13;;
25609;SDS011;13479;49.044;8.716;2024-01-11T18:24:38;77.90;;;31.43;;
25609;SDS011;13479;49.044;8.716;2024-01-11T18:27:03;73.40;;;31.27;;
25609;SDS011;13479;49.044;8.716;2024-01-11T18:29:33;76.90;;;31.43;;
25609;SDS011;13479;49.044;8.716;2024-01-11T18:31:59;74.60;;;32.33;;
25609;SDS011;13479;49.044;8.716;2024-01-11T18:34:24;73.80;;;30.50;;
25609;SDS011;13479;49.044;8.716;2024-01-11T18:36:49;77.50;;;30.77;;
25609;SDS011;13479;49.044;8.716;2024-01-11T18:39:14;79.73;;;31.97;;
25609;SDS011;13479;49.044;8.716;2024-01-11T18:41:43;74.30;;;33.70;;
25609;SDS011;13479;49.044;8.716;2024-01-11T18:44:08;107.17;;;48.53;;
25609;SDS011;13479;49.044;8.716;2024-01-11T18:46:38;90.40;;;37.77;;
25609;SDS011;13479;49.044;8.716;2024-01-11T18:49:03;94.60;;;39.90;;
25609;SDS011;13479;49.044;8.716;2024-01-11T18:51:29;80.80;;;34.67;;
25609;SDS011;13479;49.044;8.716;2024-01-11T18:53:54;93.47;;;36.07;;
25609;SDS011;13479;49.044;8.716;2024-01-11T18:56:19;88.20;;;34.10;;
25609;SDS011;13479;49.044;8.716;2024-01-11T18:58:45;81.80;;;32.97;;
25609;SDS011;13479;49.044;8.716;2024-01-11T19:01:10;88.73;;;34.17;;
25609;SDS011;13479;49.044;8.716;2024-01-11T19:03:36;78.87;;;33.83;;
25609;SDS011;13479;49.044;8.716;2024-01-11T19:06:04;83.57;;;32.70;;
25609;SDS011;13479;49.044;8.716;2024-01-11T19:08:29;84.03;;;33.13;;
25609;SDS011;13479;49.044;8.716;2024-01-11T19:10:55;80.73;;;33.37;;
25609;SDS011;13479;49.044;8.716;2024-01-11T19:13:21;91.53;;;36.23;;
25609;SDS011;13479;49.044;8.716;2024-01-11T19:15:46;91.80;;;36.70;;
25609;SDS011;13479;49.044;8.716;2024-01-11T19:18:14;92.23;;;36.90;;
25609;SDS011;13479;49.044;8.716;2024-01-11T19:20:40;105.20;;;37.73;;